Terminal Aerodrome Forecast
Issued by NWS Amarillo, TX

Home | Current Version | Previous Version | Text Only | Print | Product List | Glossary On
Versions: 1 2 3 4 5 6 7 8 9 10 11 12
000
FTUS44 KAMA 020500
TAFGUY
TAF
KGUY 020520Z 0206/0306 03007KT P6SM VCTS SCT090CB BKN250
      TEMPO 0206/0208 VRB20G35KT 5SM -TSRA
     FM021000 34010KT P6SM BKN100 OVC200
     FM021800 16010KT P6SM FEW150 SCT300
     FM030000 15010KT P6SM VCSH SCT050 BKN100=

USA.gov is the U.S. government's official web portal to all federal, state and local government web resources and services.